Time;durP1;ratioP1;P1;durP2;ratioP2;P2;SDS_P1;SDS_P2;PMS_P1;PMS_P2;Temp;Humidity;BMP_temperature;BMP_pressure;BME280_temperature;BME280_humidity;BME280_pressure;Samples;Min_cycle;Max_cycle;Signal;HPM_P1;HPM_P2
2023/12/20 00:00:55;;;;;;;7.57;3.60;;;;;;;-148.88;100.00;-17125.47;5093911;28;20027;-84
2023/12/20 00:03:20;;;;;;;9.90;3.67;;;;;;;-148.88;100.00;-17125.47;5093652;28;20074;-84
2023/12/20 00:05:47;;;;;;;11.20;3.58;;;;;;;-148.88;100.00;-17125.47;5095625;28;20077;-84
2023/12/20 00:08:12;;;;;;;8.90;3.33;;;;;;;-148.88;100.00;-17125.47;5095075;28;20032;-83
2023/12/20 00:10:37;;;;;;;10.02;3.20;;;;;;;-148.88;100.00;-17125.47;5095103;28;20056;-84
2023/12/20 00:13:03;;;;;;;9.65;3.30;;;;;;;-148.88;100.00;-17125.47;5095313;28;20530;-84
2023/12/20 00:15:28;;;;;;;10.50;3.70;;;;;;;-148.88;100.00;-17125.47;5092609;28;20024;-84
2023/12/20 00:17:54;;;;;;;11.52;3.78;;;;;;;-148.88;100.00;-17125.47;5094677;28;20039;-84
2023/12/20 00:20:19;;;;;;;11.45;3.75;;;;;;;-148.88;100.00;-17125.47;5094644;28;20020;-84
2023/12/20 00:22:44;;;;;;;10.60;4.10;;;;;;;-148.88;100.00;-17125.47;5095203;28;20024;-83
2023/12/20 00:25:10;;;;;;;11.60;4.07;;;;;;;-148.88;100.00;-17125.47;5095476;28;20020;-84
2023/12/20 00:27:35;;;;;;;13.98;3.90;;;;;;;-148.88;100.00;-17125.47;5093688;28;20024;-84
2023/12/20 00:30:00;;;;;;;10.13;4.30;;;;;;;-148.88;100.00;-17125.47;5095373;28;20035;-83
2023/12/20 00:32:26;;;;;;;12.07;4.45;;;;;;;-148.88;100.00;-17125.47;5095165;28;20437;-83
2023/12/20 00:34:51;;;;;;;9.77;3.45;;;;;;;-148.88;100.00;-17125.47;5095925;28;20493;-83
2023/12/20 00:37:16;;;;;;;8.65;3.65;;;;;;;-148.88;100.00;-17125.47;5096671;28;20036;-84
2023/12/20 00:39:42;;;;;;;7.47;3.40;;;;;;;-148.88;100.00;-17125.47;5095731;28;20039;-83
2023/12/20 00:42:07;;;;;;;9.25;3.20;;;;;;;-148.88;100.00;-17125.47;5096204;28;20020;-83
2023/12/20 00:44:33;;;;;;;15.95;3.85;;;;;;;-148.88;100.00;-17125.47;5096482;28;20103;-83
2023/12/20 00:46:58;;;;;;;11.40;3.03;;;;;;;-148.88;100.00;-17125.47;5094703;28;20020;-84
2023/12/20 00:49:23;;;;;;;9.20;2.55;;;;;;;-148.88;100.00;-17125.47;5091988;28;20035;-83
2023/12/20 00:51:50;;;;;;;6.85;2.42;;;;;;;-148.88;100.00;-17125.47;5093700;28;20028;-84
2023/12/20 00:54:16;;;;;;;7.80;2.17;;;;;;;-148.88;100.00;-17125.47;5094588;28;20059;-84
2023/12/20 00:56:41;;;;;;;10.00;1.85;;;;;;;-148.88;100.00;-17125.47;5095352;28;20020;-84
2023/12/20 00:59:06;;;;;;;10.65;2.20;;;;;;;-148.88;100.00;-17125.47;5094230;28;20028;-85
2023/12/20 01:01:33;;;;;;;7.00;2.05;;;;;;;-148.88;100.00;-17125.47;5094683;28;20034;-83
2023/12/20 01:03:58;;;;;;;7.80;2.42;;;;;;;-148.88;100.00;-17125.47;5096135;28;20054;-84
2023/12/20 01:06:23;;;;;;;7.85;2.60;;;;;;;-148.88;100.00;-17125.47;5097365;28;20028;-84
2023/12/20 01:08:49;;;;;;;7.57;1.80;;;;;;;-148.88;100.00;-17125.47;5097899;28;20033;-84
2023/12/20 01:11:14;;;;;;;6.47;2.33;;;;;;;-148.88;100.00;-17125.47;5100621;28;20099;-84
2023/12/20 01:13:39;;;;;;;16.70;4.88;;;;;;;-148.88;100.00;-17125.47;5098788;28;20501;-83
2023/12/20 01:16:05;;;;;;;11.27;2.38;;;;;;;-148.88;100.00;-17125.47;5101548;28;20111;-85
2023/12/20 01:18:31;;;;;;;10.90;2.05;;;;;;;-148.88;100.00;-17125.47;5100434;28;20026;-84
2023/12/20 01:20:56;;;;;;;5.05;2.17;;;;;;;-148.88;100.00;-17125.47;5100423;28;20028;-83
2023/12/20 01:23:21;;;;;;;6.35;2.15;;;;;;;-148.88;100.00;-17125.47;5096115;28;20023;-83
2023/12/20 01:25:47;;;;;;;8.60;2.20;;;;;;;-148.88;100.00;-17125.47;5096029;28;20035;-83
2023/12/20 01:28:13;;;;;;;10.23;1.67;;;;;;;-148.88;100.00;-17125.47;5096291;28;20133;-83
2023/12/20 01:30:38;;;;;;;8.23;2.05;;;;;;;-148.88;100.00;-17125.47;5098407;28;20105;-83
2023/12/20 01:33:03;;;;;;;6.05;1.60;;;;;;;-148.88;100.00;-17125.47;5100104;28;20028;-84
2023/12/20 01:35:29;;;;;;;6.60;2.13;;;;;;;-148.88;100.00;-17125.47;5099500;28;20024;-85
2023/12/20 01:37:56;;;;;;;9.68;1.55;;;;;;;-148.88;100.00;-17125.47;5100182;28;20126;-84
2023/12/20 01:40:22;;;;;;;10.95;2.35;;;;;;;-148.88;100.00;-17125.47;5100018;28;20110;-84
2023/12/20 01:42:47;;;;;;;8.60;1.77;;;;;;;-148.88;100.00;-17125.47;5099686;28;20059;-84
2023/12/20 01:45:13;;;;;;;6.68;2.30;;;;;;;-148.88;100.00;-17125.47;5099044;28;20467;-85
2023/12/20 01:47:38;;;;;;;5.15;1.70;;;;;;;-148.88;100.00;-17125.47;5099090;28;20102;-84
2023/12/20 01:50:07;;;;;;;10.02;2.10;;;;;;;-148.88;100.00;-17125.47;5098575;28;20020;-85
2023/12/20 01:52:34;;;;;;;5.07;1.23;;;;;;;-148.88;100.00;-17125.47;5099958;28;20023;-84
2023/12/20 01:55:02;;;;;;;8.93;1.95;;;;;;;-148.88;100.00;-17125.47;5100099;28;20047;-85
2023/12/20 01:57:28;;;;;;;3.75;1.15;;;;;;;-148.88;100.00;-17125.47;5099873;28;20027;-85
2023/12/20 01:59:53;;;;;;;9.02;1.52;;;;;;;-148.88;100.00;-17125.47;5094442;28;20020;-82
2023/12/20 02:02:19;;;;;;;5.93;1.77;;;;;;;-148.88;100.00;-17125.47;5095703;28;20432;-84
2023/12/20 02:04:45;;;;;;;8.68;1.50;;;;;;;-148.88;100.00;-17125.47;5095589;28;20020;-84
2023/12/20 02:07:11;;;;;;;8.95;1.85;;;;;;;-148.88;100.00;-17125.47;5097092;28;20054;-83
2023/12/20 02:09:38;;;;;;;9.98;1.60;;;;;;;-148.88;100.00;-17125.47;5099205;28;20043;-85
2023/12/20 02:12:03;;;;;;;8.75;1.60;;;;;;;-148.88;100.00;-17125.47;5099123;28;20027;-83
2023/12/20 02:14:29;;;;;;;6.53;1.73;;;;;;;-148.88;100.00;-17125.47;5097609;28;20031;-84
2023/12/20 02:16:54;;;;;;;6.63;1.30;;;;;;;-148.88;100.00;-17125.47;5098878;28;20028;-84
2023/12/20 02:19:20;;;;;;;10.55;2.25;;;;;;;-148.88;100.00;-17125.47;5097077;28;20066;-84
2023/12/20 02:21:45;;;;;;;4.88;1.40;;;;;;;-148.88;100.00;-17125.47;5100078;28;20028;-83
2023/12/20 02:24:11;;;;;;;6.18;1.70;;;;;;;-148.88;100.00;-17125.47;5099298;28;20501;-85
2023/12/20 02:26:36;;;;;;;5.03;1.80;;;;;;;-148.88;100.00;-17125.47;5098362;28;20036;-84
2023/12/20 02:29:02;;;;;;;7.63;1.90;;;;;;;-148.88;100.00;-17125.47;5100065;28;20020;-84
2023/12/20 02:31:27;;;;;;;8.90;2.00;;;;;;;-148.88;100.00;-17125.47;5098218;28;20059;-84
2023/12/20 02:33:53;;;;;;;9.93;2.58;;;;;;;-148.88;100.00;-17125.47;5093956;28;20107;-84
2023/12/20 02:36:18;;;;;;;10.32;1.75;;;;;;;-148.88;100.00;-17125.47;5095029;28;20028;-83
2023/12/20 02:38:43;;;;;;;5.50;2.03;;;;;;;-148.88;100.00;-17125.47;5095129;28;20134;-83
2023/12/20 02:41:09;;;;;;;5.78;1.75;;;;;;;-148.88;100.00;-17125.47;5095491;28;20081;-84
2023/12/20 02:43:34;;;;;;;10.38;2.55;;;;;;;-148.88;100.00;-17125.47;5097576;28;20020;-84
2023/12/20 02:45:59;;;;;;;5.07;1.50;;;;;;;-148.88;100.00;-17125.47;5099992;28;20024;-85
2023/12/20 02:48:25;;;;;;;6.65;1.70;;;;;;;-148.88;100.00;-17125.47;5100149;28;20024;-84
2023/12/20 02:50:51;;;;;;;9.05;2.70;;;;;;;-148.88;100.00;-17125.47;5098795;28;20028;-83
2023/12/20 02:53:16;;;;;;;7.55;1.77;;;;;;;-148.88;100.00;-17125.47;5097583;28;20056;-85
2023/12/20 02:55:41;;;;;;;7.78;1.80;;;;;;;-148.88;100.00;-17125.47;5099101;28;20441;-85
2023/12/20 02:58:07;;;;;;;4.45;2.05;;;;;;;-148.88;100.00;-17125.47;5097011;28;20478;-85
2023/12/20 03:00:32;;;;;;;10.90;2.70;;;;;;;-148.88;100.00;-17125.47;5098172;28;20024;-85
2023/12/20 03:02:59;;;;;;;8.73;2.33;;;;;;;-148.88;100.00;-17125.47;5097779;28;20042;-85
2023/12/20 03:05:24;;;;;;;6.80;2.50;;;;;;;-148.88;100.00;-17125.47;5097477;28;20502;-83
2023/12/20 03:07:50;;;;;;;10.88;3.15;;;;;;;-148.88;100.00;-17125.47;5095035;28;20489;-84
2023/12/20 03:10:15;;;;;;;7.68;2.55;;;;;;;-148.88;100.00;-17125.47;5094426;28;20024;-85
2023/12/20 03:12:40;;;;;;;7.78;2.70;;;;;;;-148.88;100.00;-17125.47;5094429;28;20532;-84
2023/12/20 03:15:06;;;;;;;10.35;2.63;;;;;;;-148.88;100.00;-17125.47;5095104;28;20476;-84
2023/12/20 03:17:31;;;;;;;7.03;3.20;;;;;;;-148.88;100.00;-17125.47;5093344;28;20030;-84
2023/12/20 03:19:57;;;;;;;9.35;2.90;;;;;;;-148.88;100.00;-17125.47;5097736;28;20031;-85
2023/12/20 03:22:22;;;;;;;10.02;2.45;;;;;;;-148.88;100.00;-17125.47;5097438;28;20020;-85
2023/12/20 03:24:48;;;;;;;9.00;3.20;;;;;;;-148.88;100.00;-17125.47;5099225;28;20016;-85
2023/12/20 03:27:13;;;;;;;10.52;3.30;;;;;;;-148.88;100.00;-17125.47;5099188;28;20073;-85
2023/12/20 03:29:38;;;;;;;14.30;3.40;;;;;;;-148.88;100.00;-17125.47;5097356;28;20020;-85
2023/12/20 03:32:04;;;;;;;6.88;2.90;;;;;;;-148.88;100.00;-17125.47;5097376;28;20020;-83
2023/12/20 03:34:29;;;;;;;8.13;3.08;;;;;;;-148.88;100.00;-17125.47;5098801;28;20050;-85
2023/12/20 03:36:54;;;;;;;9.40;3.35;;;;;;;-148.88;100.00;-17125.47;5098316;28;20016;-85
2023/12/20 03:39:20;;;;;;;9.50;3.13;;;;;;;-148.88;100.00;-17125.47;5098679;28;20028;-83
2023/12/20 03:41:45;;;;;;;6.78;3.38;;;;;;;-148.88;100.00;-17125.47;5095476;28;20474;-86
2023/12/20 03:44:10;;;;;;;14.90;3.20;;;;;;;-148.88;100.00;-17125.47;5094285;28;20055;-84
2023/12/20 03:46:36;;;;;;;11.23;3.35;;;;;;;-148.88;100.00;-17125.47;5094208;28;20395;-84
2023/12/20 03:49:01;;;;;;;9.45;3.13;;;;;;;-148.88;100.00;-17125.47;5092997;28;20486;-84
2023/12/20 03:51:27;;;;;;;13.70;3.47;;;;;;;-148.88;100.00;-17125.47;5093009;28;20024;-83
2023/12/20 03:53:52;;;;;;;12.50;4.03;;;;;;;-148.88;100.00;-17125.47;5094980;28;20020;-85
2023/12/20 03:56:17;;;;;;;8.80;3.40;;;;;;;-148.88;100.00;-17125.47;5099259;28;20024;-85
2023/12/20 03:58:43;;;;;;;12.38;3.63;;;;;;;-148.88;100.00;-17125.47;5098001;28;20048;-84
2023/12/20 04:01:12;;;;;;;13.45;3.78;;;;;;;-148.88;100.00;-17125.47;5100252;28;20394;-85
2023/12/20 04:03:38;;;;;;;12.75;4.75;;;;;;;-148.88;100.00;-17125.47;5099030;28;20035;-84
2023/12/20 04:06:04;;;;;;;11.18;4.00;;;;;;;-148.88;100.00;-17125.47;5098706;28;20020;-85
2023/12/20 04:08:29;;;;;;;19.20;5.18;;;;;;;-148.88;100.00;-17125.47;5098689;28;20059;-83
2023/12/20 04:10:54;;;;;;;11.80;4.18;;;;;;;-148.88;100.00;-17125.47;5095543;28;20100;-81
2023/12/20 04:13:20;;;;;;;14.52;3.83;;;;;;;-148.88;100.00;-17125.47;5092236;28;20417;-86
2023/12/20 04:15:45;;;;;;;15.95;3.88;;;;;;;-148.88;100.00;-17125.47;5099712;28;20195;-85
2023/12/20 04:18:10;;;;;;;14.20;4.18;;;;;;;-148.88;100.00;-17125.47;5092230;28;20020;-82
2023/12/20 04:20:36;;;;;;;9.57;3.30;;;;;;;-148.88;100.00;-17125.47;5092186;28;20097;-84
2023/12/20 04:23:01;;;;;;;14.52;4.20;;;;;;;-148.88;100.00;-17125.47;5094015;28;20028;-85
2023/12/20 04:25:26;;;;;;;15.18;3.63;;;;;;;-148.88;100.00;-17125.47;5092218;28;20051;-84
2023/12/20 04:27:52;;;;;;;11.32;3.78;;;;;;;-148.88;100.00;-17125.47;5093549;28;20034;-84
2023/12/20 04:30:17;;;;;;;10.23;3.65;;;;;;;-148.88;100.00;-17125.47;5093698;28;20032;-82
2023/12/20 04:32:42;;;;;;;14.15;4.20;;;;;;;-148.88;100.00;-17125.47;5092415;28;20123;-81
2023/12/20 04:35:10;;;;;;;11.90;3.53;;;;;;;-148.88;100.00;-17125.47;5093261;28;20024;-82
2023/12/20 04:37:35;;;;;;;16.15;4.03;;;;;;;-148.88;100.00;-17125.47;5093414;28;20024;-82
2023/12/20 04:40:01;;;;;;;12.18;3.85;;;;;;;-148.88;100.00;-17125.47;5093217;28;20031;-83
2023/12/20 04:42:26;;;;;;;16.25;4.30;;;;;;;-148.88;100.00;-17125.47;5096885;28;20106;-83
2023/12/20 04:44:52;;;;;;;8.70;3.65;;;;;;;-148.88;100.00;-17125.47;5097421;28;20016;-82
2023/12/20 04:47:17;;;;;;;17.75;4.82;;;;;;;-148.88;100.00;-17125.47;5097996;28;20032;-82
2023/12/20 04:49:42;;;;;;;13.30;3.58;;;;;;;-148.88;100.00;-17125.47;5097350;28;20024;-81
2023/12/20 04:52:08;;;;;;;12.95;3.72;;;;;;;-148.88;100.00;-17125.47;5097569;28;20046;-81
2023/12/20 04:54:33;;;;;;;11.98;4.80;;;;;;;-148.88;100.00;-17125.47;5096914;28;20067;-84
2023/12/20 04:56:58;;;;;;;11.20;3.35;;;;;;;-148.88;100.00;-17125.47;5097010;28;20024;-82
2023/12/20 04:59:23;;;;;;;19.08;3.97;;;;;;;-148.88;100.00;-17125.47;5096740;28;20051;-80
2023/12/20 05:01:49;;;;;;;14.07;3.95;;;;;;;-148.88;100.00;-17125.47;5096704;28;20558;-82
2023/12/20 05:04:14;;;;;;;23.95;3.78;;;;;;;-148.88;100.00;-17125.47;5096587;28;20526;-83
2023/12/20 05:06:40;;;;;;;8.35;3.10;;;;;;;-148.88;100.00;-17125.47;5097066;28;20020;-83
2023/12/20 05:09:05;;;;;;;7.93;3.13;;;;;;;-148.88;100.00;-17125.47;5095305;28;20026;-81
2023/12/20 05:11:30;;;;;;;10.35;3.25;;;;;;;-148.88;100.00;-17125.47;5096838;28;20433;-83
2023/12/20 05:13:56;;;;;;;10.98;3.35;;;;;;;-148.88;100.00;-17125.47;5096487;28;20478;-84
2023/12/20 05:16:22;;;;;;;10.13;3.33;;;;;;;-148.88;100.00;-17125.47;5096900;28;20102;-82
2023/12/20 05:18:49;;;;;;;7.25;3.17;;;;;;;-148.88;100.00;-17125.47;5096753;28;20056;-82
2023/12/20 05:21:14;;;;;;;13.30;3.35;;;;;;;-148.88;100.00;-17125.47;5096332;28;20032;-82
2023/12/20 05:23:40;;;;;;;12.60;3.42;;;;;;;-148.88;100.00;-17125.47;5096437;28;20036;-84
2023/12/20 05:26:06;;;;;;;10.82;3.30;;;;;;;-148.88;100.00;-17125.47;5096763;28;20497;-81
2023/12/20 05:28:31;;;;;;;8.45;3.28;;;;;;;-148.88;100.00;-17125.47;5095874;28;20107;-82
2023/12/20 05:30:56;;;;;;;9.68;3.75;;;;;;;-148.88;100.00;-17125.47;5096839;28;20206;-84
2023/12/20 05:33:22;;;;;;;10.75;2.90;;;;;;;-148.88;100.00;-17125.47;5096118;28;20106;-83
2023/12/20 05:35:47;;;;;;;12.35;4.13;;;;;;;-148.88;100.00;-17125.47;5095950;28;20024;-83
2023/12/20 05:38:12;;;;;;;11.82;3.40;;;;;;;-148.88;100.00;-17125.47;5095863;28;20028;-84
2023/12/20 05:40:38;;;;;;;11.10;3.40;;;;;;;-148.88;100.00;-17125.47;5096191;28;20077;-83
2023/12/20 05:43:03;;;;;;;9.88;3.05;;;;;;;-148.88;100.00;-17125.47;5096102;28;20080;-82
2023/12/20 05:45:29;;;;;;;15.35;3.42;;;;;;;-148.88;100.00;-17125.47;5096024;28;20157;-82
2023/12/20 05:47:54;;;;;;;14.73;3.85;;;;;;;-148.88;100.00;-17125.47;5095814;28;20020;-82
2023/12/20 05:50:21;;;;;;;7.88;2.65;;;;;;;-148.88;100.00;-17125.47;5095593;28;20028;-81
2023/12/20 05:52:46;;;;;;;11.98;3.30;;;;;;;-148.88;100.00;-17125.47;5093398;28;20384;-84
2023/12/20 05:55:12;;;;;;;9.68;3.03;;;;;;;-148.88;100.00;-17125.47;5095007;28;20506;-83
2023/12/20 05:57:37;;;;;;;7.50;2.72;;;;;;;-148.88;100.00;-17125.47;5094736;28;20062;-84
2023/12/20 06:00:03;;;;;;;15.20;3.90;;;;;;;-148.88;100.00;-17125.47;5095105;28;20039;-83
2023/12/20 06:02:28;;;;;;;12.88;3.45;;;;;;;-148.88;100.00;-17125.47;5095683;28;20046;-83
2023/12/20 06:04:54;;;;;;;11.70;3.53;;;;;;;-148.88;100.00;-17125.47;5095710;28;20382;-84
2023/12/20 06:07:20;;;;;;;8.48;3.88;;;;;;;-148.88;100.00;-17125.47;5095425;28;20069;-82
2023/12/20 06:09:45;;;;;;;19.95;3.65;;;;;;;-148.88;100.00;-17125.47;5095257;28;20089;-84
2023/12/20 06:12:11;;;;;;;10.90;5.22;;;;;;;-148.88;100.00;-17125.47;5094188;28;20051;-80
2023/12/20 06:14:36;;;;;;;10.43;3.08;;;;;;;-148.88;100.00;-17125.47;5095403;28;20044;-82
2023/12/20 06:17:02;;;;;;;15.13;3.63;;;;;;;-148.88;100.00;-17125.47;5095589;28;20031;-84
2023/12/20 06:19:27;;;;;;;10.88;3.90;;;;;;;-148.88;100.00;-17125.47;5095146;28;20039;-84
2023/12/20 06:21:53;;;;;;;13.45;3.92;;;;;;;-148.88;100.00;-17125.47;5095441;28;20024;-84
2023/12/20 06:24:18;;;;;;;11.98;3.17;;;;;;;-148.88;100.00;-17125.47;5095791;28;20072;-83
2023/12/20 06:26:44;;;;;;;11.38;4.00;;;;;;;-148.88;100.00;-17125.47;5095034;28;20028;-83
2023/12/20 06:29:12;;;;;;;10.57;3.08;;;;;;;-148.88;100.00;-17125.47;5094298;28;20062;-85
2023/12/20 06:31:38;;;;;;;20.23;4.43;;;;;;;-148.88;100.00;-17125.47;5095108;28;20024;-84
2023/12/20 06:34:03;;;;;;;17.10;3.95;;;;;;;-148.88;100.00;-17125.47;5095451;28;20024;-83
2023/12/20 06:36:28;;;;;;;14.85;3.40;;;;;;;-148.88;100.00;-17125.47;5095709;28;20039;-84
2023/12/20 06:38:54;;;;;;;11.32;3.05;;;;;;;-148.88;100.00;-17125.47;5095439;28;20016;-82
2023/12/20 06:41:19;;;;;;;13.30;3.78;;;;;;;-148.88;100.00;-17125.47;5095240;28;20019;-82
2023/12/20 06:43:44;;;;;;;12.63;3.58;;;;;;;-148.88;100.00;-17125.47;5094853;28;20035;-83
2023/12/20 06:46:10;;;;;;;11.55;4.00;;;;;;;-148.88;100.00;-17125.47;5094719;28;20032;-81
2023/12/20 06:48:35;;;;;;;13.30;5.07;;;;;;;-148.88;100.00;-17125.47;5093565;28;20042;-82
2023/12/20 06:51:04;;;;;;;9.95;3.92;;;;;;;-148.88;100.00;-17125.47;5094908;28;20111;-84
2023/12/20 06:53:29;;;;;;;16.58;4.05;;;;;;;-148.88;100.00;-17125.47;5112060;28;20020;-83
2023/12/20 06:55:56;;;;;;;19.13;4.18;;;;;;;-148.88;100.00;-17125.47;5094601;28;20475;-84
2023/12/20 06:58:21;;;;;;;9.07;3.75;;;;;;;-148.88;100.00;-17125.47;5094369;28;20024;-84
2023/12/20 07:00:47;;;;;;;12.60;4.20;;;;;;;-148.88;100.00;-17125.47;5093704;28;20077;-82
2023/12/20 07:03:12;;;;;;;12.75;4.03;;;;;;;-148.88;100.00;-17125.47;5093979;28;20045;-83
2023/12/20 07:05:37;;;;;;;14.45;3.97;;;;;;;-148.88;100.00;-17125.47;5095323;28;20020;-82
2023/12/20 07:08:03;;;;;;;11.25;4.00;;;;;;;-148.88;100.00;-17125.47;5093502;28;20501;-83
2023/12/20 07:10:29;;;;;;;13.77;4.55;;;;;;;-148.88;100.00;-17125.47;5095017;28;20027;-83
2023/12/20 07:12:55;;;;;;;13.63;4.25;;;;;;;-148.88;100.00;-17125.47;5092952;28;20039;-83
2023/12/20 07:15:21;;;;;;;15.65;3.58;;;;;;;-148.88;100.00;-17125.47;5092792;28;20028;-84
2023/12/20 07:17:46;;;;;;;13.85;4.32;;;;;;;-148.88;100.00;-17125.47;5093138;28;20497;-84
2023/12/20 07:20:12;;;;;;;14.85;3.42;;;;;;;-148.88;100.00;-17125.47;5094024;28;20490;-83
2023/12/20 07:22:37;;;;;;;12.23;4.72;;;;;;;-148.88;100.00;-17125.47;5093897;28;20043;-84
2023/12/20 07:25:03;;;;;;;14.32;4.65;;;;;;;-148.88;100.00;-17125.47;5092517;28;20156;-84
2023/12/20 07:27:29;;;;;;;22.13;4.32;;;;;;;-148.88;100.00;-17125.47;5092531;28;20421;-85
2023/12/20 07:29:54;;;;;;;11.10;3.88;;;;;;;-148.88;100.00;-17125.47;5092757;28;20020;-83
2023/12/20 07:32:19;;;;;;;13.63;4.28;;;;;;;-148.88;100.00;-17125.47;5094659;28;20022;-84
2023/12/20 07:34:45;;;;;;;14.55;4.40;;;;;;;-148.88;100.00;-17125.47;5093894;28;20051;-82
2023/12/20 07:37:11;;;;;;;10.10;3.55;;;;;;;-148.88;100.00;-17125.47;5093979;28;20436;-82
2023/12/20 07:39:40;;;;;;;16.38;4.07;;;;;;;-148.88;100.00;-17125.47;5092595;28;20023;-83
2023/12/20 07:42:05;;;;;;;15.38;3.30;;;;;;;-148.88;100.00;-17125.47;5092411;28;20023;-83
2023/12/20 07:44:31;;;;;;;11.20;3.75;;;;;;;-148.88;100.00;-17125.47;5093602;28;20391;-83
2023/12/20 07:46:57;;;;;;;17.48;4.05;;;;;;;-148.88;100.00;-17125.47;5092850;28;20030;-83
2023/12/20 07:49:26;;;;;;;19.25;4.03;;;;;;;-148.88;100.00;-17125.47;5092080;28;20410;-86
2023/12/20 07:51:51;;;;;;;11.73;3.22;;;;;;;-148.88;100.00;-17125.47;5093541;28;20020;-85
2023/12/20 07:54:17;;;;;;;15.35;3.38;;;;;;;-148.88;100.00;-17125.47;5092339;28;20020;-85
2023/12/20 07:56:42;;;;;;;16.80;3.40;;;;;;;-148.88;100.00;-17125.47;5093686;28;20020;-82
2023/12/20 07:59:07;;;;;;;15.45;4.00;;;;;;;-148.88;100.00;-17125.47;5092057;28;20027;-85
2023/12/20 08:01:33;;;;;;;14.48;4.32;;;;;;;-148.88;100.00;-17125.47;5092595;28;20035;-84
2023/12/20 08:03:58;;;;;;;16.52;5.63;;;;;;;-148.88;100.00;-17125.47;5092429;28;20085;-85
2023/12/20 08:06:24;;;;;;;15.73;4.32;;;;;;;-148.88;100.00;-17125.47;5093393;28;20436;-86
2023/12/20 08:08:57;;;;;;;9.07;3.28;;;;;;;-148.88;100.00;-17125.47;5093699;28;20027;-81
2023/12/20 08:11:22;;;;;;;10.55;3.00;;;;;;;-148.88;100.00;-17125.47;5093710;28;20099;-85
2023/12/20 08:13:48;;;;;;;13.07;3.90;;;;;;;-148.88;100.00;-17125.47;5093408;28;20117;-85
2023/12/20 08:16:15;;;;;;;16.42;3.38;;;;;;;-148.88;100.00;-17125.47;5095107;28;20020;-84
2023/12/20 08:18:41;;;;;;;15.75;4.85;;;;;;;-148.88;100.00;-17125.47;5096316;28;20023;-85
2023/12/20 08:21:09;;;;;;;14.63;3.00;;;;;;;-148.88;100.00;-17125.47;5097180;28;20027;-83
2023/12/20 08:23:34;;;;;;;15.40;4.07;;;;;;;-148.88;100.00;-17125.47;5097696;28;20429;-84
2023/12/20 08:26:05;;;;;;;14.43;3.03;;;;;;;-148.88;100.00;-17125.47;5096162;28;20020;-83
2023/12/20 08:28:42;;;;;;;9.40;2.90;;;;;;;-148.88;100.00;-17125.47;5096196;28;20023;-83
2023/12/20 08:31:14;;;;;;;12.70;3.15;;;;;;;-148.88;100.00;-17125.47;5096060;28;20024;-84
2023/12/20 08:33:42;;;;;;;23.17;4.95;;;;;;;-148.88;100.00;-17125.47;5097368;28;20058;-85
2023/12/20 08:36:07;;;;;;;10.27;3.72;;;;;;;-148.88;100.00;-17125.47;5097099;28;20071;-85
2023/12/20 08:38:33;;;;;;;9.55;2.92;;;;;;;-148.88;100.00;-17125.47;5096544;28;20483;-84
2023/12/20 08:40:58;;;;;;;15.77;3.28;;;;;;;-148.88;100.00;-17125.47;5096696;28;20401;-84
2023/12/20 08:43:29;;;;;;;9.73;2.50;;;;;;;-148.88;100.00;-17125.47;5096965;28;20028;-85
2023/12/20 08:45:55;;;;;;;14.48;3.38;;;;;;;-148.88;100.00;-17125.47;5095624;28;20019;-84
2023/12/20 08:48:20;;;;;;;16.38;4.00;;;;;;;-148.88;100.00;-17125.47;5097518;28;20024;-85
2023/12/20 08:50:47;;;;;;;8.95;3.42;;;;;;;-148.88;100.00;-17125.47;5095813;28;20027;-85
2023/12/20 08:53:16;;;;;;;14.27;3.08;;;;;;;-148.88;100.00;-17125.47;5097228;28;20055;-84
2023/12/20 08:55:41;;;;;;;10.63;3.30;;;;;;;-148.88;100.00;-17125.47;5097093;28;20111;-86
2023/12/20 08:58:07;;;;;;;12.13;3.70;;;;;;;-148.88;100.00;-17125.47;5096834;28;20052;-84
2023/12/20 09:00:33;;;;;;;17.98;4.07;;;;;;;-148.88;100.00;-17125.47;5096807;28;20054;-83
2023/12/20 09:02:59;;;;;;;12.65;3.75;;;;;;;-148.88;100.00;-17125.47;5096836;28;20478;-84
2023/12/20 09:05:25;;;;;;;11.43;3.38;;;;;;;-148.88;100.00;-17125.47;5097545;28;20379;-83
2023/12/20 09:07:50;;;;;;;13.13;3.35;;;;;;;-148.88;100.00;-17125.47;5096348;28;20024;-85
2023/12/20 09:10:21;;;;;;;14.10;3.83;;;;;;;-148.88;100.00;-17125.47;5096550;28;20076;-85
2023/12/20 09:12:47;;;;;;;13.95;3.50;;;;;;;-148.88;100.00;-17125.47;5096527;28;20031;-84
2023/12/20 09:15:13;;;;;;;14.45;3.35;;;;;;;-148.88;100.00;-17125.47;5094863;28;20044;-82
2023/12/20 09:17:38;;;;;;;11.88;3.35;;;;;;;-148.88;100.00;-17125.47;5095207;28;20070;-83
2023/12/20 09:20:06;;;;;;;12.13;3.72;;;;;;;-148.88;100.00;-17125.47;5096499;28;20024;-84
2023/12/20 09:22:32;;;;;;;19.27;3.83;;;;;;;-148.88;100.00;-17125.47;5096152;28;20039;-85
2023/12/20 09:25:02;;;;;;;14.05;4.00;;;;;;;-148.88;100.00;-17125.47;5096140;28;20016;-85
2023/12/20 09:27:28;;;;;;;16.48;4.95;;;;;;;-148.88;100.00;-17125.47;5096190;28;20049;-85
2023/12/20 09:29:53;;;;;;;9.75;3.72;;;;;;;-148.88;100.00;-17125.47;5095860;28;20111;-86
2023/12/20 09:32:20;;;;;;;16.15;4.00;;;;;;;-148.88;100.00;-17125.47;5095128;28;20028;-86
2023/12/20 09:34:46;;;;;;;13.07;3.97;;;;;;;-148.88;100.00;-17125.47;5094576;28;20029;-87
2023/12/20 09:37:11;;;;;;;9.63;3.47;;;;;;;-148.88;100.00;-17125.47;5095765;28;20141;-83
2023/12/20 09:39:37;;;;;;;31.10;4.90;;;;;;;-148.88;100.00;-17125.47;5095941;28;20039;-86
2023/12/20 09:42:07;;;;;;;16.77;5.30;;;;;;;-148.88;100.00;-17125.47;5095751;28;20035;-85
2023/12/20 09:44:34;;;;;;;14.25;4.57;;;;;;;-148.88;100.00;-17125.47;5095536;28;20026;-87
2023/12/20 09:47:02;;;;;;;18.08;4.53;;;;;;;-148.88;100.00;-17125.47;5095703;28;20501;-85
2023/12/20 09:49:28;;;;;;;16.08;4.28;;;;;;;-148.88;100.00;-17125.47;5095851;28;20035;-84
2023/12/20 09:51:54;;;;;;;13.00;4.38;;;;;;;-148.88;100.00;-17125.47;5094983;28;20024;-84
2023/12/20 09:54:21;;;;;;;11.35;4.03;;;;;;;-148.88;100.00;-17125.47;5095348;28;20028;-86
2023/12/20 09:56:47;;;;;;;21.73;4.90;;;;;;;-148.88;100.00;-17125.47;5095405;28;20032;-87
2023/12/20 09:59:19;;;;;;;11.73;3.53;;;;;;;-148.88;100.00;-17125.47;5095388;28;20030;-86
2023/12/20 10:01:44;;;;;;;19.50;5.15;;;;;;;-148.88;100.00;-17125.47;5094313;28;20512;-86
2023/12/20 10:04:12;;;;;;;9.52;4.18;;;;;;;-148.88;100.00;-17125.47;5094431;28;20051;-84
2023/12/20 10:06:41;;;;;;;16.17;3.72;;;;;;;-148.88;100.00;-17125.47;5095060;28;20035;-87
2023/12/20 10:09:07;;;;;;;19.35;4.25;;;;;;;-148.88;100.00;-17125.47;5095185;28;20031;-85
2023/12/20 10:11:32;;;;;;;17.38;4.20;;;;;;;-148.88;100.00;-17125.47;5093858;28;20028;-86
2023/12/20 10:14:01;;;;;;;14.43;4.05;;;;;;;-148.88;100.00;-17125.47;5095175;28;20020;-84
2023/12/20 10:16:27;;;;;;;10.82;3.92;;;;;;;-148.88;100.00;-17125.47;5095164;28;20057;-87
2023/12/20 10:18:56;;;;;;;12.90;4.28;;;;;;;-148.88;100.00;-17125.47;5094880;28;20050;-87
2023/12/20 10:21:28;;;;;;;16.88;4.07;;;;;;;-148.88;100.00;-17125.47;5095112;28;20016;-86
2023/12/20 10:23:57;;;;;;;11.18;4.03;;;;;;;-148.88;100.00;-17125.47;5094591;28;20024;-85
2023/12/20 10:26:27;;;;;;;17.55;4.25;;;;;;;-148.88;100.00;-17125.47;5094828;28;20047;-85
2023/12/20 10:28:59;;;;;;;21.05;5.00;;;;;;;-148.88;100.00;-17125.47;5093553;28;20043;-85
2023/12/20 10:31:29;;;;;;;15.07;3.75;;;;;;;-148.88;100.00;-17125.47;5094655;28;20020;-91
2023/12/20 10:34:02;;;;;;;15.27;3.97;;;;;;;-148.88;100.00;-17125.47;5095008;28;20035;-87
2023/12/20 10:36:33;;;;;;;25.92;4.70;;;;;;;-148.88;100.00;-17125.47;5095429;28;20035;-87
2023/12/20 10:38:59;;;;;;;20.33;4.78;;;;;;;-148.88;100.00;-17125.47;5094677;28;20027;-86
2023/12/20 10:41:30;;;;;;;6.82;3.03;;;;;;;-148.88;100.00;-17125.47;5095497;28;20028;-87
2023/12/20 10:44:04;;;;;;;12.82;3.70;;;;;;;-148.88;100.00;-17125.47;5095266;28;20020;-86
2023/12/20 10:46:33;;;;;;;16.52;3.28;;;;;;;-148.88;100.00;-17125.47;5093025;28;20019;-85
2023/12/20 10:49:01;;;;;;;15.13;3.75;;;;;;;-148.88;100.00;-17125.47;5094196;28;20082;-86
2023/12/20 10:51:29;;;;;;;14.93;3.72;;;;;;;-148.88;100.00;-17125.47;5094297;28;20024;-88